Geronimo — PD6553 — position and weather

sailwx.info

Track history (hours):
 
Tides and Currents Weather Stations Pressure Air Temp Water Temp Dewpoint Dewpoint Depression Visibility Wind Speed Wind Dir Waves Ship Positions

Geronimo

Last reported at 2015-Aug-27 20:26 UTC. Time now 2015-Aug-27 21:25 UTC.
Position N 39°48' E 002°41'.

Length 20 m; draft 2.9 m.

Type: Sailing vessel. MMSI: 244620501.

Date/timePositionNaut miles runAvg speedWind from/ knotsBaromVisibWave heightAir tempDewpointWater temp
2015-Aug-27 20:26N 39°48' E 002°41'0 0.1
2015-Aug-27 19:32N 39°48' E 002°41'0 0.0
2015-Aug-27 18:32N 39°48' E 002°41'0 0.0
2015-Aug-27 17:32N 39°48' E 002°41'0 0.0
2015-Aug-27 16:26N 39°48' E 002°41'4 4.5
2015-Aug-27 15:33N 39°51' E 002°45'2 0.5
2015-Aug-27 12:07N 39°51' E 002°47'3 6.0
2015-Aug-27 11:33N 39°51' E 002°42'2 2.4
2015-Aug-27 10:33N 39°49' E 002°40'2 2.2
2015-Aug-27 09:33N 39°48' E 002°41'0 0.0
2015-Aug-27 08:27N 39°48' E 002°41'0 0.0
2015-Aug-27 07:33N 39°48' E 002°41'0 0.0
2015-Aug-27 06:33N 39°48' E 002°41'0 0.0
2015-Aug-27 05:33N 39°48' E 002°41'0 0.0
2015-Aug-27 04:33N 39°48' E 002°41'0 0.0
2015-Aug-27 03:33N 39°48' E 002°41'0 0.0
2015-Aug-27 02:33N 39°48' E 002°41'0 0.0
2015-Aug-27 01:27N 39°48' E 002°41'0 0.0
2015-Aug-27 00:33N 39°48' E 002°41'0 0.0
2015-Aug-26 23:33N 39°48' E 002°41'0 0.0
2015-Aug-26 22:27N 39°48' E 002°41'0 0.0
2015-Aug-26 21:15N 39°48' E 002°41'0 0.0
2015-Aug-26 20:24N 39°48' E 002°41'0 0.0
2015-Aug-26 19:33N 39°48' E 002°41'0 0.0
2015-Aug-26 18:33N 39°48' E 002°41'0 0.0
2015-Aug-26 17:30N 39°48' E 002°41'0 0.0
2015-Aug-26 16:33N 39°48' E 002°41'3 3.0
2015-Aug-26 15:33N 39°46' E 002°38'0 0.0
2015-Aug-26 14:27N 39°46' E 002°38'0 0.0
2015-Aug-26 13:15N 39°46' E 002°38'0 0.0
2015-Aug-26 12:21N 39°46' E 002°38'0 0.0
2015-Aug-26 11:33N 39°46' E 002°38'3 3.0
2015-Aug-26 10:32N 39°48' E 002°42'0 0.0
2015-Aug-26 09:20N 39°48' E 002°42'0 0.0
2015-Aug-26 08:29N 39°48' E 002°42'0 0.0
2015-Aug-26 07:32N 39°48' E 002°42'0 0.0
2015-Aug-26 06:29N 39°48' E 002°42'0 0.0
2015-Aug-26 05:32N 39°48' E 002°42'0 0.0
2015-Aug-26 04:26N 39°48' E 002°42'0 0.0
2015-Aug-26 03:32N 39°48' E 002°42'0 0.0
2015-Aug-26 02:32N 39°48' E 002°42'0 0.0
2015-Aug-26 01:32N 39°48' E 002°42'0 0.0
2015-Aug-26 00:32N 39°48' E 002°42'0 0.0
2015-Aug-25 23:32N 39°48' E 002°42'0 0.0
2015-Aug-25 22:29N 39°48' E 002°42'0 0.0
2015-Aug-25 21:29N 39°48' E 002°42'0 0.0
2015-Aug-25 20:26N 39°48' E 002°42'0 0.0
2015-Aug-25 19:32N 39°48' E 002°42'0 0.0
2015-Aug-25 18:29N 39°48' E 002°42'0 0.0
2015-Aug-25 17:26N 39°48' E 002°42'2 2.6
2015-Aug-25 16:33N 39°47' E 002°39'6 1.8
2015-Aug-25 13:31N 39°43' E 002°33'7 6.5
2015-Aug-25 12:31N 39°39' E 002°26'8 5.8
2015-Aug-25 11:07N 39°32' E 002°21'4 7.4
2015-Aug-25 10:33N 39°30' E 002°25'6 5.9
2015-Aug-25 09:33N 39°29' E 002°33'6 6.0
2015-Aug-25 08:33N 39°34' E 002°38'1 0.6
2015-Aug-25 07:31N 39°34' E 002°39'0 0.0
2015-Aug-25 06:31N 39°34' E 002°39'0 0.0
2015-Aug-25 05:31N 39°34' E 002°39'0 0.0
2015-Aug-25 04:31N 39°34' E 002°39'0 0.0
2015-Aug-25 03:31N 39°34' E 002°39'0 0.0
2015-Aug-25 02:31N 39°34' E 002°39'0 0.0
2015-Aug-25 01:31N 39°34' E 002°39'0 0.0
2015-Aug-25 00:31N 39°34' E 002°39'0 0.0
2015-Aug-24 23:31N 39°34' E 002°39'0 0.0
2015-Aug-24 22:31N 39°34' E 002°39'0 0.0
2015-Aug-24 21:31N 39°34' E 002°39'0 0.0
2015-Aug-24 20:31N 39°34' E 002°39'0 0.0
2015-Aug-24 19:31N 39°34' E 002°39'0 0.0
2015-Aug-24 18:31N 39°34' E 002°39'0 0.0
2015-Aug-24 17:31N 39°34' E 002°39'0 0.0
2015-Aug-24 16:31N 39°34' E 002°39'0 0.0
2015-Aug-24 15:31N 39°34' E 002°39'0 0.0
2015-Aug-24 14:31N 39°34' E 002°39'0 0.0
2015-Aug-24 13:31N 39°34' E 002°39'0 0.0
2015-Aug-24 12:31N 39°34' E 002°39'0 0.0
2015-Aug-24 11:31N 39°34' E 002°39'0 0.0
2015-Aug-24 10:28N 39°34' E 002°39'0 0.0
2015-Aug-24 09:31N 39°34' E 002°39'0 0.0
2015-Aug-24 08:28N 39°34' E 002°39'0 0.0
2015-Aug-24 07:31N 39°34' E 002°39'0 0.0
2015-Aug-24 06:31N 39°34' E 002°39'0 0.0
2015-Aug-24 05:31N 39°34' E 002°39'0 0.0
2015-Aug-24 04:28N 39°34' E 002°39'0 0.0
2015-Aug-24 03:31N 39°34' E 002°39'0 0.0
2015-Aug-24 02:31N 39°34' E 002°39'0 0.0
2015-Aug-24 01:31N 39°34' E 002°39'0 0.0
2015-Aug-24 00:28N 39°34' E 002°39'0 0.0
2015-Aug-23 23:31N 39°34' E 002°39'0 0.0
2015-Aug-23 22:31N 39°34' E 002°39'0 0.0
2015-Aug-23 21:31N 39°34' E 002°39'0 0.0
2015-Aug-23 20:31N 39°34' E 002°39'0 0.0
2015-Aug-23 19:31N 39°34' E 002°39'0 0.0
2015-Aug-23 18:31N 39°34' E 002°39'0 0.0
2015-Aug-23 17:31N 39°34' E 002°39'0 0.0
2015-Aug-23 16:27N 39°34' E 002°38'5 5.7
2015-Aug-23 15:33N 39°29' E 002°40'3 3.0
2015-Aug-23 14:34N 39°26' E 002°39'6 5.9
2015-Aug-23 13:33N 39°28' E 002°31'0 0.0
2015-Aug-23 12:33N 39°28' E 002°31'0 0.0
2015-Aug-23 11:33N 39°28' E 002°31'2 1.9
2015-Aug-23 10:33N 39°27' E 002°33'3 2.5
2015-Aug-23 09:33N 39°27' E 002°36'5 5.0
2015-Aug-23 08:33N 39°32' E 002°37'6 5.8
2015-Aug-23 07:32N 39°30' E 002°44'0 0.0
2015-Aug-23 06:32N 39°30' E 002°44'0 0.0
2015-Aug-23 05:32N 39°30' E 002°44'0 0.0
2015-Aug-23 04:29N 39°30' E 002°44'0 0.0
2015-Aug-23 03:32N 39°30' E 002°44'0 0.0
2015-Aug-23 02:32N 39°30' E 002°44'0 0.0
2015-Aug-23 01:32N 39°30' E 002°44'0 0.0
2015-Aug-23 00:31N 39°30' E 002°44'0 0.0
2015-Aug-22 23:32N 39°30' E 002°44'0 0.0
2015-Aug-22 22:26N 39°30' E 002°44'0 0.0
2015-Aug-22 21:31N 39°30' E 002°44'0 0.0
2015-Aug-22 20:32N 39°30' E 002°44'0 0.0
2015-Aug-22 19:31N 39°30' E 002°44'0 0.0
2015-Aug-22 18:31N 39°30' E 002°44'0 0.0
2015-Aug-22 17:31N 39°30' E 002°44'0 0.0
2015-Aug-22 16:31N 39°30' E 002°44'1 0.8
2015-Aug-22 15:33N 39°29' E 002°44'0 0.0
2015-Aug-22 14:33N 39°29' E 002°44'0 0.0
2015-Aug-22 13:32N 39°29' E 002°44'0 0.4
2015-Aug-22 12:28N 39°29' E 002°43'7 7.9
2015-Aug-22 11:33N 39°26' E 002°35'6 6.4
2015-Aug-22 10:33N 39°25' E 002°27'7 1.0
2015-Aug-22 03:27N 39°32' E 002°25'0 0.0
2015-Aug-21 23:11N 39°32' E 002°25'1 0.1
2015-Aug-21 17:24N 39°32' E 002°24'5 5.9
2015-Aug-21 16:33N 39°29' E 002°19'8 8.4
2015-Aug-21 15:33N 39°23' E 002°11'8 7.9
2015-Aug-21 14:33N 39°18' E 002°03'9 8.5
2015-Aug-21 13:32N 39°14' E 001°54'8 8.1
2015-Aug-21 12:33N 39°09' E 001°45'7 7.5
2015-Aug-21 11:33N 39°03' E 001°40'8 8.1
2015-Aug-21 10:33N 38°56' E 001°36'  
Track history (hours):
 
Tides and Currents Weather Stations Pressure Air Temp Water Temp Dewpoint Dewpoint Depression Visibility Wind Speed Wind Dir Waves Ship Positions

Geronimo

Last reported at 2015-Aug-27 20:26 UTC. Time now 2015-Aug-27 21:25 UTC.
Position N 39°48' E 002°41'.

Length 20 m; draft 2.9 m.

Type: Sailing vessel. MMSI: 244620501.

Date/timePositionNaut miles runAvg speedWind from/ knotsBaromVisibWave heightAir tempDewpointWater temp
2015-Aug-27 20:26N 39°48' E 002°41'0 0.1
2015-Aug-27 19:32N 39°48' E 002°41'0 0.0
2015-Aug-27 18:32N 39°48' E 002°41'0 0.0
2015-Aug-27 17:32N 39°48' E 002°41'0 0.0
2015-Aug-27 16:26N 39°48' E 002°41'4 4.5
2015-Aug-27 15:33N 39°51' E 002°45'2 0.5
2015-Aug-27 12:07N 39°51' E 002°47'3 6.0
2015-Aug-27 11:33N 39°51' E 002°42'2 2.4
2015-Aug-27 10:33N 39°49' E 002°40'2 2.2
2015-Aug-27 09:33N 39°48' E 002°41'0 0.0
2015-Aug-27 08:27N 39°48' E 002°41'0 0.0
2015-Aug-27 07:33N 39°48' E 002°41'0 0.0
2015-Aug-27 06:33N 39°48' E 002°41'0 0.0
2015-Aug-27 05:33N 39°48' E 002°41'0 0.0
2015-Aug-27 04:33N 39°48' E 002°41'0 0.0
2015-Aug-27 03:33N 39°48' E 002°41'0 0.0
2015-Aug-27 02:33N 39°48' E 002°41'0 0.0
2015-Aug-27 01:27N 39°48' E 002°41'0 0.0
2015-Aug-27 00:33N 39°48' E 002°41'0 0.0
2015-Aug-26 23:33N 39°48' E 002°41'0 0.0
2015-Aug-26 22:27N 39°48' E 002°41'0 0.0
2015-Aug-26 21:15N 39°48' E 002°41'0 0.0
2015-Aug-26 20:24N 39°48' E 002°41'0 0.0
2015-Aug-26 19:33N 39°48' E 002°41'0 0.0
2015-Aug-26 18:33N 39°48' E 002°41'0 0.0
2015-Aug-26 17:30N 39°48' E 002°41'0 0.0
2015-Aug-26 16:33N 39°48' E 002°41'3 3.0
2015-Aug-26 15:33N 39°46' E 002°38'0 0.0
2015-Aug-26 14:27N 39°46' E 002°38'0 0.0
2015-Aug-26 13:15N 39°46' E 002°38'0 0.0
2015-Aug-26 12:21N 39°46' E 002°38'0 0.0
2015-Aug-26 11:33N 39°46' E 002°38'3 3.0
2015-Aug-26 10:32N 39°48' E 002°42'0 0.0
2015-Aug-26 09:20N 39°48' E 002°42'0 0.0
2015-Aug-26 08:29N 39°48' E 002°42'0 0.0
2015-Aug-26 07:32N 39°48' E 002°42'0 0.0
2015-Aug-26 06:29N 39°48' E 002°42'0 0.0
2015-Aug-26 05:32N 39°48' E 002°42'0 0.0
2015-Aug-26 04:26N 39°48' E 002°42'0 0.0
2015-Aug-26 03:32N 39°48' E 002°42'0 0.0
2015-Aug-26 02:32N 39°48' E 002°42'0 0.0
2015-Aug-26 01:32N 39°48' E 002°42'0 0.0
2015-Aug-26 00:32N 39°48' E 002°42'0 0.0
2015-Aug-25 23:32N 39°48' E 002°42'0 0.0
2015-Aug-25 22:29N 39°48' E 002°42'0 0.0
2015-Aug-25 21:29N 39°48' E 002°42'0 0.0
2015-Aug-25 20:26N 39°48' E 002°42'0 0.0
2015-Aug-25 19:32N 39°48' E 002°42'0 0.0
2015-Aug-25 18:29N 39°48' E 002°42'0 0.0
2015-Aug-25 17:26N 39°48' E 002°42'2 2.6
2015-Aug-25 16:33N 39°47' E 002°39'6 1.8
2015-Aug-25 13:31N 39°43' E 002°33'7 6.5
2015-Aug-25 12:31N 39°39' E 002°26'8 5.8
2015-Aug-25 11:07N 39°32' E 002°21'4 7.4
2015-Aug-25 10:33N 39°30' E 002°25'6 5.9
2015-Aug-25 09:33N 39°29' E 002°33'6 6.0
2015-Aug-25 08:33N 39°34' E 002°38'1 0.6
2015-Aug-25 07:31N 39°34' E 002°39'0 0.0
2015-Aug-25 06:31N 39°34' E 002°39'0 0.0
2015-Aug-25 05:31N 39°34' E 002°39'0 0.0
2015-Aug-25 04:31N 39°34' E 002°39'0 0.0
2015-Aug-25 03:31N 39°34' E 002°39'0 0.0
2015-Aug-25 02:31N 39°34' E 002°39'0 0.0
2015-Aug-25 01:31N 39°34' E 002°39'0 0.0
2015-Aug-25 00:31N 39°34' E 002°39'0 0.0
2015-Aug-24 23:31N 39°34' E 002°39'0 0.0
2015-Aug-24 22:31N 39°34' E 002°39'0 0.0
2015-Aug-24 21:31N 39°34' E 002°39'0 0.0
2015-Aug-24 20:31N 39°34' E 002°39'0 0.0
2015-Aug-24 19:31N 39°34' E 002°39'0 0.0
2015-Aug-24 18:31N 39°34' E 002°39'0 0.0
2015-Aug-24 17:31N 39°34' E 002°39'0 0.0
2015-Aug-24 16:31N 39°34' E 002°39'0 0.0
2015-Aug-24 15:31N 39°34' E 002°39'0 0.0
2015-Aug-24 14:31N 39°34' E 002°39'0 0.0
2015-Aug-24 13:31N 39°34' E 002°39'0 0.0
2015-Aug-24 12:31N 39°34' E 002°39'0 0.0
2015-Aug-24 11:31N 39°34' E 002°39'0 0.0
2015-Aug-24 10:28N 39°34' E 002°39'0 0.0
2015-Aug-24 09:31N 39°34' E 002°39'0 0.0
2015-Aug-24 08:28N 39°34' E 002°39'0 0.0
2015-Aug-24 07:31N 39°34' E 002°39'0 0.0
2015-Aug-24 06:31N 39°34' E 002°39'0 0.0
2015-Aug-24 05:31N 39°34' E 002°39'0 0.0
2015-Aug-24 04:28N 39°34' E 002°39'0 0.0
2015-Aug-24 03:31N 39°34' E 002°39'0 0.0
2015-Aug-24 02:31N 39°34' E 002°39'0 0.0
2015-Aug-24 01:31N 39°34' E 002°39'0 0.0
2015-Aug-24 00:28N 39°34' E 002°39'0 0.0
2015-Aug-23 23:31N 39°34' E 002°39'0 0.0
2015-Aug-23 22:31N 39°34' E 002°39'0 0.0
2015-Aug-23 21:31N 39°34' E 002°39'0 0.0
2015-Aug-23 20:31N 39°34' E 002°39'0 0.0
2015-Aug-23 19:31N 39°34' E 002°39'0 0.0
2015-Aug-23 18:31N 39°34' E 002°39'0 0.0
2015-Aug-23 17:31N 39°34' E 002°39'0 0.0
2015-Aug-23 16:27N 39°34' E 002°38'5 5.7
2015-Aug-23 15:33N 39°29' E 002°40'3 3.0
2015-Aug-23 14:34N 39°26' E 002°39'6 5.9
2015-Aug-23 13:33N 39°28' E 002°31'0 0.0
2015-Aug-23 12:33N 39°28' E 002°31'0 0.0
2015-Aug-23 11:33N 39°28' E 002°31'2 1.9
2015-Aug-23 10:33N 39°27' E 002°33'3 2.5
2015-Aug-23 09:33N 39°27' E 002°36'5 5.0
2015-Aug-23 08:33N 39°32' E 002°37'6 5.8
2015-Aug-23 07:32N 39°30' E 002°44'0 0.0
2015-Aug-23 06:32N 39°30' E 002°44'0 0.0
2015-Aug-23 05:32N 39°30' E 002°44'0 0.0
2015-Aug-23 04:29N 39°30' E 002°44'0 0.0
2015-Aug-23 03:32N 39°30' E 002°44'0 0.0
2015-Aug-23 02:32N 39°30' E 002°44'0 0.0
2015-Aug-23 01:32N 39°30' E 002°44'0 0.0
2015-Aug-23 00:31N 39°30' E 002°44'0 0.0
2015-Aug-22 23:32N 39°30' E 002°44'0 0.0
2015-Aug-22 22:26N 39°30' E 002°44'0 0.0
2015-Aug-22 21:31N 39°30' E 002°44'0 0.0
2015-Aug-22 20:32N 39°30' E 002°44'0 0.0
2015-Aug-22 19:31N 39°30' E 002°44'0 0.0
2015-Aug-22 18:31N 39°30' E 002°44'0 0.0
2015-Aug-22 17:31N 39°30' E 002°44'0 0.0
2015-Aug-22 16:31N 39°30' E 002°44'1 0.8
2015-Aug-22 15:33N 39°29' E 002°44'0 0.0
2015-Aug-22 14:33N 39°29' E 002°44'0 0.0
2015-Aug-22 13:32N 39°29' E 002°44'0 0.4
2015-Aug-22 12:28N 39°29' E 002°43'7 7.9
2015-Aug-22 11:33N 39°26' E 002°35'6 6.4
2015-Aug-22 10:33N 39°25' E 002°27'7 1.0
2015-Aug-22 03:27N 39°32' E 002°25'0 0.0
2015-Aug-21 23:11N 39°32' E 002°25'1 0.1
2015-Aug-21 17:24N 39°32' E 002°24'5 5.9
2015-Aug-21 16:33N 39°29' E 002°19'8 8.4
2015-Aug-21 15:33N 39°23' E 002°11'8 7.9
2015-Aug-21 14:33N 39°18' E 002°03'9 8.5
2015-Aug-21 13:32N 39°14' E 001°54'8 8.1
2015-Aug-21 12:33N 39°09' E 001°45'7 7.5
2015-Aug-21 11:33N 39°03' E 001°40'8 8.1
2015-Aug-21 10:33N 38°56' E 001°36'  

Dump ship's entire track history